Aviation Digital Data Service (ADDS)

Output produced by METARs form (0212 UTC 07 June 2020)
found at http://aviationweather.gov/metar/data/
 
METAR text: KARR 070152Z AUTO 06006KT 10SM CLR 18/10 A3009 RMK AO2 SLP187 T01780100
Conditions at: KARR (CHICAGO/AURORA , IL, US) observed 0152 UTC 07 June 2020
Temperature: 17.8°C (64°F)
Dewpoint: 10.0°C (50°F) [RH = 60%]
Pressure (altimeter): 30.09 inches Hg (1019.0 mb)
[Sea-level pressure: 1018.7 mb]
Winds: from the ENE (60 degrees) at 7 MPH (6 knots; 3.1 m/s)
Visibility: 10 or more miles (16+ km)
Ceiling: at least 12,000 feet AGL
Clouds: sky clear below 12,000 feet AGL
Weather: automated observation with no human augmentation;
there may or may not be significant weather present at this time